CheckWX is a tool to help pilots better visualize weather data.  It is not intended as a substitute for an official pre-flight weather briefing.

04:47:07 UTC

KMGM TAF
Montgomery Regional (Dannelly Field) Airport
Montgomery, Alabama, USA
KMGM 270130Z 2702/2724 25006KT P6SM VCTS SCT050CB SCT100 TEMPO 2702/2703 36010G22KT 2SM TSRA FM270300 VRB02KT P6SM SCT120 FM271500 03008KT P6SM SCT050

Jun-27@
02:00 UTC

Jun-27 @ 02:00 UTC

Jun-27@
03:00 UTC

Jun-27 @ 03:00 UTC

KMGM 270130Z 2702/2724 25006KT P6SM VCTS SCT050CB SCT100

Expired

Wind
  • 250° at 6 KTS
Conditions
Area Thunderstorm
Cloud Levels
  • Scattered at 5,000' AGL
  • Scattered at 10,000' AGL

Jun-27@
02:00 UTC

Jun-27 @ 02:00 UTC

Jun-27@
03:00 UTC

Jun-27 @ 03:00 UTC

TEMPO 2702/2703 36010G22KT 2SM TSRA

Expired

Wind
  • 360° at 10 KTS
  • {Gusting to 22 KTS
Conditions
Thunderstorm, Rain

Jun-27@
03:00 UTC

Jun-27 @ 03:00 UTC

Jun-27@
15:00 UTC

Jun-27 @ 15:00 UTC

FM270300 VRB02KT P6SM SCT120

From

From Standard forecast or significant change

Wind
  • Variable at 2 KTS
Cloud Levels
  • Scattered at 12,000' AGL

Jun-27@
15:00 UTC

Jun-27 @ 15:00 UTC

Jun-28@
00:00 UTC

Jun-28 @ 00:00 UTC

FM271500 03008KT P6SM SCT050

From

From Standard forecast or significant change

Wind
  • 030° at 8 KTS
Cloud Levels
  • Scattered at 5,000' AGL